Time;durP1;ratioP1;P1;durP2;ratioP2;P2;SDS_P1;SDS_P2;PMS_P1;PMS_P2;Temp;Humidity;BMP_temperature;BMP_pressure;BME280_temperature;BME280_humidity;BME280_pressure;Samples;Min_cycle;Max_cycle;Signal;HPM_P1;HPM_P2
2021/01/31 00:01:48;;;;;;;22.27;12.10;;;1.10;94.90;;;;;;5012920;28;20506;-87
2021/01/31 00:04:15;;;;;;;23.77;12.93;;;1.10;94.90;;;;;;4983092;28;20392;-87
2021/01/31 00:06:41;;;;;;;21.08;11.50;;;1.10;95.00;;;;;;5012869;28;20113;-87
2021/01/31 00:09:09;;;;;;;23.75;12.75;;;1.10;95.00;;;;;;4996606;28;20116;-87
2021/01/31 00:11:35;;;;;;;23.38;12.90;;;1.10;95.00;;;;;;5029028;28;20033;-87
2021/01/31 00:14:01;;;;;;;23.25;13.30;;;1.10;95.00;;;;;;5003885;28;20104;-87
2021/01/31 00:16:26;;;;;;;22.42;12.82;;;1.10;95.30;;;;;;4981770;28;20505;-87
2021/01/31 00:18:52;;;;;;;25.17;14.02;;;1.10;95.00;;;;;;4997889;28;20037;-87
2021/01/31 00:21:18;;;;;;;23.58;13.38;;;1.00;94.90;;;;;;4995742;28;20022;-87
2021/01/31 00:23:43;;;;;;;24.55;13.77;;;1.00;94.90;;;;;;4992640;28;20034;-87
2021/01/31 00:26:09;;;;;;;25.63;13.40;;;1.00;94.90;;;;;;5004734;28;20034;-87
2021/01/31 00:28:34;;;;;;;20.45;12.68;;;1.00;94.80;;;;;;4973781;28;20061;-87
2021/01/31 00:31:00;;;;;;;22.50;12.38;;;1.00;95.10;;;;;;4996350;28;20029;-87
2021/01/31 00:33:30;;;;;;;23.10;13.65;;;1.00;94.90;;;;;;4996038;28;20108;-87
2021/01/31 00:36:14;;;;;;;24.52;13.05;;;1.00;94.80;;;;;;5029215;28;20486;-87
2021/01/31 00:38:40;;;;;;;24.33;12.98;;;1.00;94.80;;;;;;4996358;28;20034;-87
2021/01/31 00:41:05;;;;;;;24.55;13.23;;;1.00;95.00;;;;;;4996439;28;20069;-88
2021/01/31 00:43:31;;;;;;;22.75;12.38;;;1.00;94.80;;;;;;5012578;28;20018;-87
2021/01/31 00:45:57;;;;;;;24.25;12.65;;;1.00;94.80;;;;;;5012477;28;20057;-87
2021/01/31 00:48:23;;;;;;;25.17;13.80;;;1.00;94.80;;;;;;5028897;28;20030;-87
2021/01/31 00:50:48;;;;;;;22.10;12.27;;;0.90;94.70;;;;;;5012184;28;20048;-87
2021/01/31 00:53:14;;;;;;;22.15;12.75;;;0.90;94.80;;;;;;5008534;28;20025;-87
2021/01/31 00:55:40;;;;;;;26.55;13.77;;;1.00;94.80;;;;;;5015251;28;20054;-88
2021/01/31 00:58:06;;;;;;;21.02;12.60;;;0.90;94.70;;;;;;4991431;28;20076;-87
2021/01/31 01:00:38;;;;;;;21.80;12.70;;;0.90;94.80;;;;;;5003689;28;20026;-87
2021/01/31 01:03:05;;;;;;;22.52;13.35;;;0.90;94.80;;;;;;5014740;28;20371;-87
2021/01/31 01:05:32;;;;;;;21.33;12.30;;;0.90;94.80;;;;;;5012144;28;20018;-88
2021/01/31 01:07:58;;;;;;;22.85;13.65;;;0.90;94.90;;;;;;4980330;28;20080;-87
2021/01/31 01:10:30;;;;;;;22.35;12.10;;;0.90;94.90;;;;;;5027546;28;20037;-87
2021/01/31 01:12:57;;;;;;;23.75;13.38;;;0.90;94.90;;;;;;5017615;28;20073;-88
2021/01/31 01:15:26;;;;;;;25.95;14.13;;;0.90;95.00;;;;;;5010029;28;20026;-87
2021/01/31 01:17:52;;;;;;;22.55;12.30;;;0.90;94.90;;;;;;5011700;28;20026;-88
2021/01/31 01:20:18;;;;;;;21.58;12.65;;;0.90;94.90;;;;;;5020574;28;20581;-87
2021/01/31 01:22:44;;;;;;;23.48;13.30;;;0.90;94.90;;;;;;5008552;28;20113;-87
2021/01/31 01:25:12;;;;;;;22.60;12.50;;;1.00;94.90;;;;;;5004777;28;20028;-87
2021/01/31 01:27:38;;;;;;;21.67;11.98;;;0.90;94.90;;;;;;5011748;28;20112;-87
2021/01/31 01:30:08;;;;;;;21.02;11.85;;;0.90;94.90;;;;;;5020542;28;20116;-87
2021/01/31 01:32:34;;;;;;;24.35;13.45;;;0.90;95.00;;;;;;5012603;28;20107;-87
2021/01/31 01:34:59;;;;;;;20.15;11.30;;;0.90;94.90;;;;;;4987265;28;20055;-87
2021/01/31 01:37:25;;;;;;;22.60;12.80;;;0.90;95.00;;;;;;5000715;28;20440;-87
2021/01/31 01:39:51;;;;;;;26.33;14.90;;;0.90;95.00;;;;;;5018174;28;20026;-88
2021/01/31 01:42:16;;;;;;;21.08;11.80;;;0.90;94.90;;;;;;5015443;28;20026;-87
2021/01/31 01:44:42;;;;;;;20.42;11.65;;;0.90;95.00;;;;;;5002424;28;20028;-87
2021/01/31 01:47:21;;;;;;;21.98;12.65;;;0.90;95.00;;;;;;5001091;28;20080;-87
2021/01/31 01:49:50;;;;;;;20.33;11.63;;;0.90;95.00;;;;;;5049195;28;20092;-87
2021/01/31 01:52:51;;;;;;;25.23;14.13;;;0.90;95.00;;;;;;5031473;28;20104;-87
2021/01/31 01:55:18;;;;;;;21.45;12.05;;;0.90;94.90;;;;;;5038945;28;20048;-88
2021/01/31 01:57:49;;;;;;;23.38;12.88;;;0.90;94.90;;;;;;5016451;28;20087;-87
2021/01/31 02:00:16;;;;;;;21.30;12.95;;;0.90;94.90;;;;;;5034918;28;20032;-87
2021/01/31 02:02:52;;;;;;;22.70;12.55;;;0.90;95.00;;;;;;5018640;28;20037;-87
2021/01/31 02:05:18;;;;;;;24.08;13.40;;;0.90;95.00;;;;;;5035848;28;20401;-87
2021/01/31 02:07:44;;;;;;;22.35;13.20;;;0.80;95.00;;;;;;5048838;28;20360;-87
2021/01/31 02:10:12;;;;;;;22.50;12.55;;;0.80;95.00;;;;;;5018357;28;20092;-87
2021/01/31 02:12:38;;;;;;;23.02;13.57;;;0.80;95.00;;;;;;5034599;28;20025;-87
2021/01/31 02:15:06;;;;;;;22.17;11.30;;;0.80;94.90;;;;;;5018022;28;20017;-87
2021/01/31 02:18:01;;;;;;;22.95;13.02;;;0.90;95.00;;;;;;5034679;28;20037;-87
2021/01/31 02:20:27;;;;;;;22.17;12.73;;;0.80;95.20;;;;;;4980941;28;20034;-87
2021/01/31 02:23:07;;;;;;;23.98;12.73;;;0.80;95.00;;;;;;5017787;28;20544;-87
2021/01/31 02:26:04;;;;;;;22.25;12.90;;;0.80;94.90;;;;;;5021017;28;20017;-87
2021/01/31 02:28:46;;;;;;;22.17;12.40;;;0.80;94.90;;;;;;5033861;28;20109;-87
2021/01/31 02:31:30;;;;;;;23.05;12.43;;;0.80;94.90;;;;;;5035494;28;20053;-87
2021/01/31 02:34:10;;;;;;;21.65;12.23;;;0.80;95.00;;;;;;5035092;28;20024;-87
2021/01/31 02:37:08;;;;;;;22.45;13.30;;;0.80;94.90;;;;;;5032947;28;20030;-87
2021/01/31 02:39:56;;;;;;;21.10;12.73;;;0.80;94.90;;;;;;5001870;28;20033;-87
2021/01/31 02:42:46;;;;;;;22.27;12.63;;;0.80;94.90;;;;;;5033859;28;20037;-87
2021/01/31 02:45:21;;;;;;;23.23;13.18;;;0.80;94.90;;;;;;5022438;28;20025;-87
2021/01/31 02:48:02;;;;;;;22.27;13.05;;;0.80;94.90;;;;;;5034004;28;20079;-87
2021/01/31 02:50:36;;;;;;;25.45;13.73;;;0.80;94.90;;;;;;5033951;28;20487;-87
2021/01/31 02:53:27;;;;;;;20.92;11.30;;;0.80;94.90;;;;;;5033888;28;20021;-87
2021/01/31 02:56:02;;;;;;;22.67;12.90;;;0.70;94.90;;;;;;4999912;28;20137;-87
2021/01/31 02:58:42;;;;;;;23.73;13.00;;;0.70;94.90;;;;;;4997475;28;20034;-87
2021/01/31 03:01:26;;;;;;;26.83;13.88;;;0.70;95.00;;;;;;5016603;28;20018;-87
2021/01/31 03:04:01;;;;;;;21.58;12.65;;;0.70;95.00;;;;;;5030089;28;20372;-87
2021/01/31 03:06:30;;;;;;;24.33;13.43;;;0.70;95.00;;;;;;5005843;28;20035;-87
2021/01/31 03:09:05;;;;;;;22.50;12.80;;;0.70;95.00;;;;;;5019372;28;20033;-87
2021/01/31 03:11:36;;;;;;;22.92;12.57;;;0.70;95.10;;;;;;5014935;28;20053;-86
2021/01/31 03:14:06;;;;;;;22.00;12.45;;;0.70;95.00;;;;;;5019715;28;20022;-87
2021/01/31 03:16:54;;;;;;;21.10;12.52;;;0.70;95.10;;;;;;5013653;28;20105;-87
2021/01/31 03:19:34;;;;;;;24.02;13.30;;;0.70;95.10;;;;;;5025490;28;20037;-86
2021/01/31 03:22:02;;;;;;;23.88;13.07;;;0.80;95.10;;;;;;5013629;28;20507;-86
2021/01/31 03:24:32;;;;;;;23.13;12.82;;;0.80;95.10;;;;;;5017077;28;20010;-87
2021/01/31 03:27:04;;;;;;;23.92;13.10;;;0.70;95.00;;;;;;5018226;28;20026;-87
2021/01/31 03:29:30;;;;;;;22.90;12.88;;;0.70;95.00;;;;;;5001362;28;20026;-87
2021/01/31 03:32:01;;;;;;;23.33;13.18;;;0.70;95.00;;;;;;5013327;28;20035;-87
2021/01/31 03:34:35;;;;;;;22.27;12.57;;;0.70;95.00;;;;;;5013041;28;20484;-87
2021/01/31 03:37:04;;;;;;;22.77;12.80;;;0.70;95.10;;;;;;5025740;28;20021;-86
2021/01/31 03:39:33;;;;;;;23.90;12.70;;;0.70;95.10;;;;;;4996597;28;20037;-87
2021/01/31 03:41:59;;;;;;;23.65;12.80;;;0.70;95.10;;;;;;4985766;28;20022;-87
2021/01/31 03:44:25;;;;;;;23.40;13.20;;;0.70;95.00;;;;;;5012847;28;20475;-87
2021/01/31 03:47:04;;;;;;;24.13;12.88;;;0.70;95.00;;;;;;4996539;28;20125;-87
2021/01/31 03:50:06;;;;;;;23.52;13.52;;;0.70;95.10;;;;;;5020468;28;20061;-87
2021/01/31 03:52:32;;;;;;;22.48;12.50;;;0.70;95.00;;;;;;4934587;29;20036;-86
2021/01/31 03:54:58;;;;;;;19.75;10.85;;;0.70;95.00;;;;;;5003844;28;20129;-87
2021/01/31 03:57:59;;;;;;;21.40;12.23;;;0.70;95.00;;;;;;5018409;28;20060;-87
2021/01/31 04:00:29;;;;;;;22.48;12.55;;;0.70;95.10;;;;;;5011946;28;20061;-86
2021/01/31 04:03:14;;;;;;;22.52;12.48;;;0.70;95.30;;;;;;5015868;28;20048;-86
2021/01/31 04:05:58;;;;;;;22.45;12.63;;;0.70;95.00;;;;;;5015658;28;20024;-87
2021/01/31 04:08:24;;;;;;;20.55;12.43;;;0.70;95.00;;;;;;5025066;28;20146;-87
2021/01/31 04:10:51;;;;;;;23.38;13.73;;;0.70;95.00;;;;;;4984181;28;20033;-86
2021/01/31 04:13:20;;;;;;;26.48;14.20;;;0.70;95.00;;;;;;4996248;28;20120;-86
2021/01/31 04:15:49;;;;;;;24.85;12.98;;;0.70;95.20;;;;;;5026185;28;20026;-87
2021/01/31 04:21:37;;;;;;;24.88;12.73;;;0.70;94.80;;;;;;5032542;28;20036;-86
2021/01/31 04:24:04;;;;;;;24.17;13.38;;;0.70;94.80;;;;;;4991524;28;20398;-86
2021/01/31 04:26:30;;;;;;;24.17;13.02;;;0.70;94.80;;;;;;5026800;28;20033;-86
2021/01/31 04:28:56;;;;;;;23.13;13.23;;;0.60;94.90;;;;;;5006156;28;20494;-86
2021/01/31 04:31:21;;;;;;;20.95;11.80;;;0.60;95.00;;;;;;5015331;28;20111;-86
2021/01/31 04:33:47;;;;;;;23.15;12.63;;;0.70;95.00;;;;;;5001792;28;20386;-86
2021/01/31 04:36:13;;;;;;;24.67;13.65;;;0.60;95.00;;;;;;5007302;28;20037;-86
2021/01/31 04:38:38;;;;;;;22.05;12.05;;;0.70;95.00;;;;;;4985087;28;20028;-87
2021/01/31 04:41:04;;;;;;;23.25;12.88;;;0.70;95.00;;;;;;5011841;28;20112;-87
2021/01/31 04:43:30;;;;;;;24.13;13.40;;;0.70;95.00;;;;;;5011775;28;20050;-86
2021/01/31 04:45:57;;;;;;;22.73;12.45;;;0.60;94.90;;;;;;5024510;28;20101;-87
2021/01/31 04:48:51;;;;;;;23.40;13.07;;;0.70;94.90;;;;;;5028390;28;20026;-87
2021/01/31 04:51:36;;;;;;;22.67;12.32;;;0.70;94.70;;;;;;5024340;28;20036;-87
2021/01/31 04:54:20;;;;;;;23.05;13.25;;;0.70;94.80;;;;;;5030726;28;20025;-87
2021/01/31 04:56:58;;;;;;;22.98;12.43;;;0.60;94.80;;;;;;5003478;28;20033;-86
2021/01/31 04:59:53;;;;;;;23.65;12.93;;;0.60;94.80;;;;;;5017119;28;20171;-87
2021/01/31 05:02:41;;;;;;;24.20;12.48;;;0.60;94.90;;;;;;4982016;28;20041;-87
2021/01/31 05:05:55;;;;;;;22.90;12.13;;;0.60;94.80;;;;;;5031329;28;20029;-87
2021/01/31 05:08:25;;;;;;;24.65;13.23;;;0.60;94.90;;;;;;4914251;29;20035;-86
2021/01/31 05:10:55;;;;;;;22.92;12.27;;;0.60;94.80;;;;;;4999877;28;20141;-86
2021/01/31 05:13:26;;;;;;;23.43;12.33;;;0.60;94.80;;;;;;5032359;28;20088;-87
2021/01/31 05:16:04;;;;;;;21.63;12.65;;;0.60;94.80;;;;;;5000869;28;20038;-87
2021/01/31 05:18:32;;;;;;;23.27;13.13;;;0.60;94.90;;;;;;5031064;28;20449;-87
2021/01/31 05:21:08;;;;;;;21.13;12.07;;;0.50;94.90;;;;;;5031100;28;20025;-87
2021/01/31 05:23:38;;;;;;;22.05;12.38;;;0.50;94.90;;;;;;5031213;28;20109;-87
2021/01/31 05:26:06;;;;;;;22.98;12.20;;;0.60;94.90;;;;;;5031114;28;20025;-86
2021/01/31 05:28:34;;;;;;;20.40;11.23;;;0.60;94.90;;;;;;5030062;28;20026;-87
2021/01/31 05:31:01;;;;;;;22.55;11.98;;;0.60;94.90;;;;;;5016973;28;20033;-87
2021/01/31 05:33:26;;;;;;;23.83;11.65;;;0.60;94.90;;;;;;4978862;28;20096;-87
2021/01/31 05:36:06;;;;;;;20.67;11.68;;;0.60;95.00;;;;;;4995081;28;20034;-86
2021/01/31 05:38:41;;;;;;;21.88;12.23;;;0.60;95.00;;;;;;5009254;28;20451;-87
2021/01/31 05:41:28;;;;;;;25.42;12.57;;;0.60;95.00;;;;;;5013033;28;20026;-87
2021/01/31 05:44:06;;;;;;;24.98;12.88;;;0.60;95.00;;;;;;5002054;28;20368;-87
2021/01/31 05:46:41;;;;;;;21.83;11.85;;;0.60;95.00;;;;;;5001809;28;20026;-87
2021/01/31 05:49:29;;;;;;;22.52;12.40;;;0.60;95.00;;;;;;5017066;28;20029;-87
2021/01/31 05:51:56;;;;;;;23.30;12.50;;;0.50;95.00;;;;;;5001801;28;20062;-86
2021/01/31 05:54:49;;;;;;;20.75;11.32;;;0.50;95.00;;;;;;5023325;23;20053;-94
2021/01/31 05:57:36;;;;;;;20.10;11.30;;;0.60;95.10;;;;;;5032370;28;20470;-93
2021/01/31 06:00:34;;;;;;;22.23;12.27;;;0.60;95.10;;;;;;5016865;28;20045;-93
2021/01/31 06:03:04;;;;;;;22.30;11.65;;;0.50;95.00;;;;;;4979590;28;20038;-94
2021/01/31 06:05:31;;;;;;;20.30;11.18;;;0.50;95.00;;;;;;5035577;28;20017;-94
2021/01/31 06:08:07;;;;;;;20.65;11.00;;;0.50;95.00;;;;;;4986881;28;20034;-93
2021/01/31 06:10:36;;;;;;;20.48;11.02;;;0.50;95.00;;;;;;5036257;28;20536;-94
2021/01/31 06:13:10;;;;;;;22.13;12.38;;;0.50;95.30;;;;;;5022095;28;20025;-94
2021/01/31 06:15:42;;;;;;;22.45;12.35;;;0.50;94.90;;;;;;5021450;28;20041;-93
2021/01/31 06:18:29;;;;;;;21.63;11.95;;;0.50;94.90;;;;;;5010508;28;20099;-94
2021/01/31 06:21:14;;;;;;;22.40;11.80;;;0.60;94.90;;;;;;5053885;28;20021;-93
2021/01/31 06:23:47;;;;;;;24.02;12.57;;;0.50;94.90;;;;;;5015103;28;20014;-93
2021/01/31 06:26:28;;;;;;;21.05;11.20;;;0.50;94.90;;;;;;5014924;28;20072;-92
2021/01/31 06:29:13;;;;;;;21.67;11.98;;;0.50;94.90;;;;;;5024333;28;20489;-93
2021/01/31 06:31:57;;;;;;;21.02;10.93;;;0.50;94.90;;;;;;5039626;28;20422;-95
2021/01/31 06:34:22;;;;;;;20.23;11.30;;;0.50;95.00;;;;;;5007549;28;20470;-93
2021/01/31 06:37:02;;;;;;;21.80;12.10;;;0.50;95.00;;;;;;4983717;28;20033;-93
2021/01/31 06:39:49;;;;;;;20.58;11.38;;;0.50;95.00;;;;;;5031463;28;20035;-93
2021/01/31 06:42:56;;;;;;;24.98;11.60;;;0.50;94.90;;;;;;5039110;28;20570;-94
2021/01/31 06:45:34;;;;;;;21.42;11.77;;;0.50;94.90;;;;;;4993415;28;20056;-93
2021/01/31 06:48:09;;;;;;;23.35;12.68;;;0.50;94.90;;;;;;5012335;28;20022;-93
2021/01/31 06:50:55;;;;;;;24.00;12.30;;;0.50;94.90;;;;;;5013868;28;20064;-93
2021/01/31 06:53:51;;;;;;;24.23;12.15;;;0.50;94.90;;;;;;5038234;28;20021;-94
2021/01/31 06:56:35;;;;;;;22.77;11.80;;;0.40;94.90;;;;;;5039305;28;20034;-93
2021/01/31 06:59:29;;;;;;;26.65;13.27;;;0.50;94.90;;;;;;5041284;28;20036;-93
2021/01/31 07:02:13;;;;;;;22.23;12.32;;;0.40;94.90;;;;;;5010466;28;20017;-93
2021/01/31 07:05:16;;;;;;;24.88;12.60;;;0.40;94.90;;;;;;5000942;28;20046;-94
2021/01/31 07:07:51;;;;;;;23.70;11.82;;;0.40;94.90;;;;;;5013883;28;20026;-94
2021/01/31 07:10:48;;;;;;;26.83;12.52;;;0.40;95.00;;;;;;5018661;28;20022;-93
2021/01/31 07:13:25;;;;;;;22.92;11.50;;;0.40;95.00;;;;;;5038025;28;20108;-93
2021/01/31 07:16:22;;;;;;;21.92;11.43;;;0.40;95.00;;;;;;5028185;28;20083;-93
2021/01/31 07:19:11;;;;;;;25.10;12.80;;;0.30;95.00;;;;;;5007209;28;20079;-93
2021/01/31 07:21:59;;;;;;;24.20;12.90;;;0.40;95.00;;;;;;5004876;28;20026;-94
2021/01/31 07:24:39;;;;;;;22.92;12.40;;;0.30;95.00;;;;;;5014964;28;20028;-92
2021/01/31 07:27:32;;;;;;;26.77;14.02;;;0.30;95.00;;;;;;5012320;28;20009;-93
2021/01/31 07:30:04;;;;;;;25.95;12.98;;;0.30;95.00;;;;;;5011182;28;20103;-94
2021/01/31 07:32:55;;;;;;;24.25;13.00;;;0.30;94.90;;;;;;5018743;28;20017;-94
2021/01/31 07:35:27;;;;;;;23.88;13.13;;;0.30;94.90;;;;;;5014818;28;20530;-94
2021/01/31 07:38:04;;;;;;;21.95;12.05;;;0.30;94.90;;;;;;5029286;28;20082;-93
2021/01/31 07:40:31;;;;;;;22.50;11.95;;;0.30;94.90;;;;;;5033664;28;20021;-93
2021/01/31 07:42:58;;;;;;;24.38;13.15;;;0.30;94.90;;;;;;5026563;28;20113;-92
2021/01/31 07:45:25;;;;;;;24.50;13.52;;;0.40;95.00;;;;;;4988026;28;20494;-93
2021/01/31 07:48:29;;;;;;;26.75;13.30;;;0.30;94.90;;;;;;5004244;28;20018;-93
2021/01/31 07:50:55;;;;;;;23.42;12.43;;;0.30;94.90;;;;;;5017863;28;20021;-94
2021/01/31 07:53:32;;;;;;;26.40;13.70;;;0.30;95.00;;;;;;4981950;28;20030;-93
2021/01/31 07:56:27;;;;;;;27.67;13.02;;;0.30;95.00;;;;;;5028405;28;20048;-92
2021/01/31 07:58:55;;;;;;;28.40;13.52;;;0.30;94.80;;;;;;5047728;28;20067;-93
2021/01/31 08:01:39;;;;;;;22.88;12.23;;;0.30;94.80;;;;;;5023413;28;20024;-93
2021/01/31 08:04:17;;;;;;;25.55;13.73;;;0.30;94.90;;;;;;5020992;28;20029;-93
2021/01/31 08:06:55;;;;;;;24.95;13.05;;;0.30;94.90;;;;;;5014845;28;20037;-94
2021/01/31 08:09:27;;;;;;;24.30;12.75;;;0.30;94.80;;;;;;5015748;28;20118;-93
2021/01/31 08:12:12;;;;;;;23.98;12.30;;;0.30;94.90;;;;;;5029525;28;20029;-93
2021/01/31 08:15:12;;;;;;;24.15;12.27;;;0.30;95.00;;;;;;5019560;28;20021;-93
2021/01/31 08:17:46;;;;;;;25.35;12.85;;;0.30;95.00;;;;;;5023743;28;20029;-92
2021/01/31 08:20:27;;;;;;;25.60;13.52;;;0.30;95.00;;;;;;5016593;28;20029;-91
2021/01/31 08:22:57;;;;;;;24.65;13.35;;;0.30;95.10;;;;;;5016308;28;20057;-90
2021/01/31 08:25:27;;;;;;;25.02;13.00;;;0.30;95.10;;;;;;5012764;28;20026;-91
2021/01/31 08:28:02;;;;;;;23.67;12.23;;;0.30;95.10;;;;;;5013139;28;20026;-91
2021/01/31 08:30:33;;;;;;;24.88;12.73;;;0.40;95.30;;;;;;5022886;28;20044;-91
2021/01/31 08:33:02;;;;;;;25.08;12.98;;;0.40;95.20;;;;;;5011431;28;20098;-90
2021/01/31 08:35:36;;;;;;;25.13;13.35;;;0.40;95.20;;;;;;5021111;28;20041;-91
2021/01/31 08:38:27;;;;;;;26.25;14.32;;;0.40;95.10;;;;;;5019243;28;20490;-91
2021/01/31 08:41:04;;;;;;;27.80;15.00;;;0.50;95.10;;;;;;5018386;28;20029;-90
2021/01/31 08:43:34;;;;;;;27.10;14.00;;;0.50;95.00;;;;;;5015804;28;20021;-91
2021/01/31 08:46:10;;;;;;;24.63;13.27;;;0.50;95.00;;;;;;4997569;28;20113;-90
2021/01/31 08:48:36;;;;;;;27.23;14.73;;;0.50;95.00;;;;;;5019529;28;20497;-91
2021/01/31 08:51:13;;;;;;;23.90;13.73;;;0.50;94.90;;;;;;5017663;28;20025;-90
2021/01/31 08:53:39;;;;;;;27.05;12.90;;;0.50;95.00;;;;;;5027595;28;20118;-90
2021/01/31 08:56:28;;;;;;;25.08;12.93;;;0.50;95.00;;;;;;5004372;28;20041;-91
2021/01/31 08:58:55;;;;;;;28.50;13.57;;;0.50;94.90;;;;;;5025474;28;20026;-90
2021/01/31 09:01:21;;;;;;;25.48;13.32;;;0.50;95.00;;;;;;5016587;28;20164;-91
2021/01/31 09:03:47;;;;;;;25.88;14.57;;;0.60;95.00;;;;;;4998482;28;20088;-90
2021/01/31 09:06:35;;;;;;;26.15;13.77;;;0.60;94.90;;;;;;4998556;28;20017;-91
2021/01/31 09:09:00;;;;;;;24.05;13.10;;;0.60;94.90;;;;;;5008125;28;20030;-93
2021/01/31 09:11:26;;;;;;;24.65;12.95;;;0.60;95.00;;;;;;4978480;28;20034;-91
2021/01/31 09:13:51;;;;;;;27.20;14.63;;;0.60;95.00;;;;;;4999915;28;20502;-91
2021/01/31 09:16:24;;;;;;;23.88;13.02;;;0.70;94.60;;;;;;4989383;28;20026;-91
2021/01/31 09:19:23;;;;;;;26.02;12.75;;;0.70;94.60;;;;;;5015519;28;20032;-91
2021/01/31 09:21:57;;;;;;;27.67;14.27;;;0.70;94.60;;;;;;4959371;28;20391;-91
2021/01/31 09:24:23;;;;;;;24.65;13.27;;;0.70;94.50;;;;;;5003685;28;20029;-91
2021/01/31 09:26:53;;;;;;;23.90;13.63;;;0.70;94.50;;;;;;4994354;28;20026;-91
2021/01/31 09:29:25;;;;;;;25.95;14.00;;;0.70;94.50;;;;;;5008696;28;20447;-91
2021/01/31 09:32:11;;;;;;;25.20;12.82;;;0.70;94.50;;;;;;5010711;28;20109;-91
2021/01/31 09:34:39;;;;;;;26.42;13.80;;;0.70;94.60;;;;;;5017017;28;20057;-91
2021/01/31 09:37:11;;;;;;;25.92;14.35;;;0.80;94.60;;;;;;5015021;28;20061;-92
2021/01/31 09:39:39;;;;;;;23.05;13.35;;;0.80;94.60;;;;;;5014744;28;20033;-92
2021/01/31 09:42:06;;;;;;;25.25;14.02;;;0.80;94.60;;;;;;4991458;28;20031;-92
2021/01/31 09:44:36;;;;;;;26.45;14.93;;;0.80;94.60;;;;;;5015568;28;20590;-91
2021/01/31 09:47:03;;;;;;;26.60;15.27;;;0.80;94.60;;;;;;5010077;28;20025;-92
2021/01/31 09:49:31;;;;;;;27.25;14.95;;;0.90;94.60;;;;;;4996155;28;20479;-92
2021/01/31 09:52:08;;;;;;;24.95;13.15;;;0.80;94.70;;;;;;4999714;28;20022;-92
2021/01/31 09:54:35;;;;;;;23.63;12.93;;;0.90;94.40;;;;;;4981063;28;20137;-92
2021/01/31 09:57:05;;;;;;;24.63;13.73;;;0.90;94.50;;;;;;5017091;28;20513;-92
2021/01/31 10:00:06;;;;;;;23.58;13.38;;;0.90;94.40;;;;;;5018783;28;20079;-92
2021/01/31 10:02:34;;;;;;;24.88;14.02;;;0.90;94.50;;;;;;5016370;28;20017;-92
2021/01/31 10:05:04;;;;;;;25.83;13.50;;;1.00;94.40;;;;;;5003317;28;20079;-93
2021/01/31 10:07:38;;;;;;;23.93;13.63;;;1.00;94.40;;;;;;5013704;28;20114;-93
2021/01/31 10:10:39;;;;;;;23.63;13.10;;;1.00;94.30;;;;;;5029000;28;20025;-93
2021/01/31 10:13:14;;;;;;;;;;;1.00;94.40;;;;;;5000620;28;20080;-95
2021/01/31 10:15:42;;;;;;;24.40;13.07;;;1.00;94.40;;;;;;5017347;28;19911;-94
2021/01/31 10:18:13;;;;;;;25.52;14.07;;;1.00;94.20;;;;;;5028066;28;20026;-94
2021/01/31 10:20:40;;;;;;;22.75;13.20;;;1.00;94.10;;;;;;4988802;28;20034;-94
2021/01/31 10:23:06;;;;;;;25.92;14.55;;;1.00;94.10;;;;;;4992626;28;20033;-93
2021/01/31 10:29:03;;;;;;;25.33;14.52;;;1.00;93.90;;;;;;5036903;28;20060;-92
2021/01/31 10:31:40;;;;;;;24.10;13.48;;;1.00;93.90;;;;;;5011937;28;20113;-91
2021/01/31 10:34:10;;;;;;;24.35;13.77;;;1.00;94.00;;;;;;5008831;28;20029;-92
2021/01/31 10:36:44;;;;;;;23.63;13.65;;;1.10;94.10;;;;;;5012903;28;20017;-92
2021/01/31 10:39:13;;;;;;;25.77;14.63;;;1.10;94.00;;;;;;5017582;28;20013;-92
2021/01/31 10:41:44;;;;;;;24.48;13.68;;;1.10;93.80;;;;;;5019243;28;20033;-92
2021/01/31 10:44:19;;;;;;;26.50;14.02;;;1.10;93.70;;;;;;5018188;28;20013;-92
2021/01/31 10:46:45;;;;;;;24.20;13.73;;;1.10;93.90;;;;;;5034719;28;20037;-92
2021/01/31 10:49:11;;;;;;;21.17;12.50;;;1.10;94.00;;;;;;5000878;28;20029;-92
2021/01/31 10:51:37;;;;;;;24.23;13.25;;;1.20;94.20;;;;;;5000952;28;20087;-91
2021/01/31 10:54:04;;;;;;;23.80;13.25;;;1.20;94.10;;;;;;5036508;28;20483;-91
2021/01/31 10:56:30;;;;;;;23.95;12.77;;;1.30;94.20;;;;;;5038269;28;20375;-91
2021/01/31 10:58:56;;;;;;;22.33;12.55;;;1.30;94.20;;;;;;5000547;28;20459;-91
2021/01/31 11:01:22;;;;;;;25.85;14.68;;;1.30;94.20;;;;;;4999350;28;20030;-92
2021/01/31 11:03:49;;;;;;;25.05;14.55;;;1.40;94.00;;;;;;5001928;28;20028;-91
2021/01/31 11:06:35;;;;;;;25.80;13.98;;;1.40;94.10;;;;;;5006103;28;20112;-91
2021/01/31 11:09:05;;;;;;;24.27;14.00;;;1.40;94.10;;;;;;5016402;28;20509;-92
2021/01/31 11:11:33;;;;;;;22.65;12.45;;;1.50;94.20;;;;;;5016491;28;20091;-91
2021/01/31 11:13:58;;;;;;;24.85;13.32;;;1.50;94.30;;;;;;5007162;28;20056;-91
2021/01/31 11:16:27;;;;;;;22.88;13.23;;;1.50;93.80;;;;;;5003776;28;20033;-91
2021/01/31 11:18:53;;;;;;;25.25;14.52;;;1.60;93.90;;;;;;5018086;28;20029;-91
2021/01/31 11:21:22;;;;;;;24.55;13.85;;;1.60;93.70;;;;;;5023337;28;20036;-91
2021/01/31 11:24:07;;;;;;;22.30;12.88;;;1.60;93.80;;;;;;5037034;28;20082;-92
2021/01/31 11:26:33;;;;;;;20.63;12.60;;;1.60;93.90;;;;;;5014998;28;20034;-93
2021/01/31 11:28:59;;;;;;;22.48;12.77;;;1.70;94.00;;;;;;5021960;28;20021;-91
2021/01/31 11:31:30;;;;;;;24.45;13.32;;;1.70;93.90;;;;;;5022973;28;20026;-91
2021/01/31 11:34:00;;;;;;;23.00;13.60;;;1.70;93.90;;;;;;5002483;28;20025;-91
2021/01/31 11:36:52;;;;;;;23.90;14.00;;;1.80;93.90;;;;;;5005326;28;20033;-91
2021/01/31 11:39:18;;;;;;;24.08;14.13;;;1.80;93.90;;;;;;4991016;28;20117;-91
2021/01/31 11:41:44;;;;;;;23.52;14.32;;;1.90;93.80;;;;;;5001518;28;20103;-92
2021/01/31 11:44:10;;;;;;;22.55;13.43;;;1.90;93.50;;;;;;5016710;28;20022;-92
2021/01/31 11:46:46;;;;;;;21.92;13.52;;;2.00;93.60;;;;;;5016624;28;20018;-92
2021/01/31 11:49:21;;;;;;;20.30;12.73;;;2.00;93.40;;;;;;5032497;28;20029;-91
2021/01/31 11:54:53;;;;;;;21.85;12.45;;;2.00;93.30;;;;;;5119608;22;20057;-86
2021/01/31 11:57:18;;;;;;;19.15;11.43;;;2.10;93.20;;;;;;4993593;28;20517;-85
2021/01/31 11:59:44;;;;;;;22.00;12.77;;;2.10;93.40;;;;;;4995219;28;20061;-85
2021/01/31 12:02:10;;;;;;;21.73;11.73;;;2.10;93.30;;;;;;4995790;28;20124;-85
2021/01/31 12:04:37;;;;;;;21.83;12.00;;;2.20;93.40;;;;;;4990530;28;20023;-85
2021/01/31 12:07:07;;;;;;;20.58;11.43;;;2.20;93.50;;;;;;5012796;28;20185;-85
2021/01/31 12:09:34;;;;;;;18.13;11.05;;;2.30;93.60;;;;;;5011591;28;20049;-85
2021/01/31 12:12:00;;;;;;;17.30;10.32;;;2.30;93.70;;;;;;5004190;28;20034;-85
2021/01/31 12:14:26;;;;;;;19.45;11.15;;;2.30;93.80;;;;;;4997548;28;20041;-86
2021/01/31 12:16:52;;;;;;;19.38;10.93;;;2.40;93.80;;;;;;4977924;28;20471;-85
2021/01/31 12:19:19;;;;;;;20.58;11.40;;;2.50;93.70;;;;;;4996631;28;20057;-84
2021/01/31 12:21:44;;;;;;;19.23;11.88;;;2.50;93.50;;;;;;5011712;28;20379;-85
2021/01/31 12:24:10;;;;;;;20.42;12.70;;;2.60;93.20;;;;;;5012334;28;20030;-85
2021/01/31 12:26:36;;;;;;;18.75;11.23;;;2.60;93.10;;;;;;4979062;28;20022;-85
2021/01/31 12:29:02;;;;;;;21.52;12.98;;;2.70;93.00;;;;;;5013789;28;20422;-85
2021/01/31 12:31:28;;;;;;;17.65;11.00;;;2.70;93.10;;;;;;4995681;28;20101;-85
2021/01/31 12:33:53;;;;;;;19.95;11.10;;;2.70;92.90;;;;;;5006136;28;20022;-85
2021/01/31 12:36:19;;;;;;;19.88;12.10;;;2.80;92.80;;;;;;4989258;28;20040;-85
2021/01/31 12:38:45;;;;;;;18.08;11.60;;;2.80;92.90;;;;;;4992211;28;20034;-84
2021/01/31 12:41:11;;;;;;;15.52;10.07;;;2.80;92.70;;;;;;5002802;28;20096;-84
2021/01/31 12:43:37;;;;;;;17.25;10.68;;;2.80;92.90;;;;;;5011636;28;20032;-84
2021/01/31 12:46:03;;;;;;;17.95;11.20;;;2.90;93.00;;;;;;5012208;28;20034;-85
2021/01/31 12:48:28;;;;;;;17.05;11.13;;;2.90;93.10;;;;;;5013070;28;20041;-85
2021/01/31 12:50:54;;;;;;;17.42;10.60;;;2.90;93.00;;;;;;5012888;28;20536;-84
2021/01/31 12:53:20;;;;;;;17.05;10.18;;;3.00;93.00;;;;;;5012726;28;20026;-83
2021/01/31 12:55:45;;;;;;;16.88;10.30;;;3.00;93.00;;;;;;4995652;28;20082;-84
2021/01/31 12:58:11;;;;;;;16.90;10.25;;;3.00;93.00;;;;;;4998281;28;20037;-85
2021/01/31 13:00:37;;;;;;;25.58;12.23;;;3.00;93.10;;;;;;5014934;28;20506;-85
2021/01/31 13:03:02;;;;;;;17.92;12.02;;;3.00;92.70;;;;;;4999031;28;20192;-85
2021/01/31 13:05:31;;;;;;;17.15;11.02;;;3.00;92.50;;;;;;5014773;28;20037;-85
2021/01/31 13:08:01;;;;;;;19.45;12.07;;;3.00;92.40;;;;;;5009956;28;20470;-84
2021/01/31 13:10:27;;;;;;;19.88;11.27;;;3.00;92.30;;;;;;5007338;28;20079;-85
2021/01/31 13:12:53;;;;;;;19.73;11.45;;;3.00;92.10;;;;;;5014968;28;20481;-85
2021/01/31 13:15:20;;;;;;;16.80;10.27;;;2.90;92.00;;;;;;5015689;28;20029;-85
2021/01/31 13:17:46;;;;;;;18.05;10.60;;;2.90;92.20;;;;;;5029931;28;20029;-85
2021/01/31 13:20:13;;;;;;;16.85;10.35;;;2.90;92.20;;;;;;4988157;28;20036;-85